Time;durP1;ratioP1;P1;durP2;ratioP2;P2;SDS_P1;SDS_P2;PMS_P1;PMS_P2;Temp;Humidity;BMP_temperature;BMP_pressure;BME280_temperature;BME280_humidity;BME280_pressure;Samples;Min_cycle;Max_cycle;Signal;HPM_P1;HPM_P2
2022/03/31 00:00:28;;;;;;;0.00;0.00;;;;;;;;;;1729488;28;20207;-76
2022/03/31 00:01:19;;;;;;;0.00;0.00;;;;;;;;;;1730467;28;20227;-76
2022/03/31 00:02:11;;;;;;;0.00;0.00;;;;;;;;;;1729978;28;20223;-76
2022/03/31 00:03:04;;;;;;;0.00;0.00;;;;;;;;;;1726609;28;20653;-76
2022/03/31 00:03:56;;;;;;;0.00;0.00;;;;;;;;;;1731335;28;20246;-75
2022/03/31 00:04:47;;;;;;;0.00;0.00;;;;;;;;;;1732320;28;20211;-75
2022/03/31 00:05:40;;;;;;;0.00;0.00;;;;;;;;;;1724035;28;20231;-76
2022/03/31 00:06:31;;;;;;;0.00;0.00;;;;;;;;;;1725936;28;20665;-76
2022/03/31 00:07:23;;;;;;;0.00;0.00;;;;;;;;;;1726548;28;20214;-76
2022/03/31 00:08:16;;;;;;;0.00;0.00;;;;;;;;;;1725685;28;20223;-75
2022/03/31 00:09:07;;;;;;;0.00;0.00;;;;;;;;;;1722787;28;20369;-76
2022/03/31 00:09:59;;;;;;;0.00;0.00;;;;;;;;;;1724995;28;20351;-75
2022/03/31 00:10:53;;;;;;;0.00;0.00;;;;;;;;;;1723357;28;20618;-75
2022/03/31 00:11:46;;;;;;;0.08;0.08;;;;;;;;;;1724713;28;20204;-75
2022/03/31 00:12:38;;;;;;;0.00;0.00;;;;;;;;;;1726455;28;20599;-75
2022/03/31 00:13:31;;;;;;;0.00;0.00;;;;;;;;;;1725459;28;20593;-75
2022/03/31 00:14:22;;;;;;;0.00;0.00;;;;;;;;;;1726487;28;20208;-75
2022/03/31 00:15:13;;;;;;;0.00;0.00;;;;;;;;;;1724328;28;20216;-75
2022/03/31 00:16:06;;;;;;;0.00;0.00;;;;;;;;;;1725387;28;20239;-75
2022/03/31 00:16:57;;;;;;;0.00;0.00;;;;;;;;;;1725125;28;20234;-75
2022/03/31 00:17:50;;;;;;;0.00;0.00;;;;;;;;;;1726188;28;20204;-75
2022/03/31 00:18:42;;;;;;;0.00;0.00;;;;;;;;;;1725900;28;20204;-75
2022/03/31 00:19:33;;;;;;;0.10;0.10;;;;;;;;;;1726271;28;20212;-75
2022/03/31 00:20:25;;;;;;;0.10;0.10;;;;;;;;;;1723819;28;20192;-74
2022/03/31 00:21:16;;;;;;;0.10;0.10;;;;;;;;;;1726354;28;20228;-75
2022/03/31 00:22:08;;;;;;;0.00;0.00;;;;;;;;;;1725599;28;20208;-75
2022/03/31 00:22:59;;;;;;;0.08;0.08;;;;;;;;;;1726231;28;20295;-75
2022/03/31 00:23:52;;;;;;;0.00;0.00;;;;;;;;;;1725080;28;20196;-75
2022/03/31 00:24:43;;;;;;;0.00;0.00;;;;;;;;;;1726516;28;20219;-75
2022/03/31 00:25:35;;;;;;;0.03;0.03;;;;;;;;;;1723651;28;20236;-76
2022/03/31 00:26:27;;;;;;;0.00;0.00;;;;;;;;;;1726167;28;20262;-76
2022/03/31 00:27:21;;;;;;;0.00;0.00;;;;;;;;;;1726144;28;20208;-76
2022/03/31 00:28:12;;;;;;;0.00;0.00;;;;;;;;;;1725939;28;20216;-75
2022/03/31 00:29:05;;;;;;;0.00;0.00;;;;;;;;;;1726047;28;20255;-76
2022/03/31 00:29:56;;;;;;;0.00;0.00;;;;;;;;;;1724465;28;20643;-75
2022/03/31 00:30:48;;;;;;;0.00;0.00;;;;;;;;;;1723972;28;20239;-76
2022/03/31 00:31:40;;;;;;;0.00;0.00;;;;;;;;;;1724949;28;20619;-76
2022/03/31 00:32:32;;;;;;;0.00;0.00;;;;;;;;;;1725686;28;20595;-76
2022/03/31 00:33:23;;;;;;;0.00;0.00;;;;;;;;;;1725510;28;20243;-76
2022/03/31 00:34:15;;;;;;;0.10;0.10;;;;;;;;;;1723765;28;20681;-76
2022/03/31 00:35:07;;;;;;;0.00;0.00;;;;;;;;;;1725722;28;20433;-76
2022/03/31 00:35:59;;;;;;;0.10;0.10;;;;;;;;;;1722898;28;20232;-75
2022/03/31 00:36:51;;;;;;;0.00;0.00;;;;;;;;;;1725621;28;20200;-75
2022/03/31 00:37:43;;;;;;;0.10;0.10;;;;;;;;;;1726163;28;20416;-75
2022/03/31 00:38:35;;;;;;;0.00;0.00;;;;;;;;;;1725760;28;20657;-75
2022/03/31 00:39:29;;;;;;;0.10;0.10;;;;;;;;;;1726515;28;20726;-75
2022/03/31 00:40:25;;;;;;;0.00;0.00;;;;;;;;;;1722897;28;20535;-75
2022/03/31 00:41:16;;;;;;;0.10;0.10;;;;;;;;;;1725467;28;20236;-75
2022/03/31 00:42:09;;;;;;;0.00;0.00;;;;;;;;;;1724007;28;20626;-75
2022/03/31 00:43:02;;;;;;;0.00;0.00;;;;;;;;;;1725950;28;20251;-75
2022/03/31 00:43:54;;;;;;;0.10;0.10;;;;;;;;;;1724978;28;20208;-75
2022/03/31 00:44:46;;;;;;;0.10;0.10;;;;;;;;;;1725603;28;20208;-75
2022/03/31 00:45:46;;;;;;;0.10;0.10;;;;;;;;;;1723819;28;20240;-76
2022/03/31 00:46:47;;;;;;;0.00;0.00;;;;;;;;;;1725482;28;20208;-76
2022/03/31 00:47:38;;;;;;;0.10;0.10;;;;;;;;;;1724247;28;20212;-76
2022/03/31 00:48:30;;;;;;;0.00;0.00;;;;;;;;;;1725369;28;20420;-76
2022/03/31 00:49:22;;;;;;;0.00;0.00;;;;;;;;;;1725873;28;20543;-76
2022/03/31 00:50:16;;;;;;;0.25;0.25;;;;;;;;;;1724394;28;20602;-76
2022/03/31 00:51:07;;;;;;;0.00;0.00;;;;;;;;;;1725112;28;20327;-76
2022/03/31 00:51:59;;;;;;;0.10;0.10;;;;;;;;;;1725109;28;20211;-76
2022/03/31 00:52:50;;;;;;;0.10;0.10;;;;;;;;;;1726046;28;20212;-76
2022/03/31 00:53:42;;;;;;;0.00;0.00;;;;;;;;;;1725891;28;20274;-76
2022/03/31 00:54:34;;;;;;;0.00;0.00;;;;;;;;;;1725541;28;20205;-75
2022/03/31 00:55:26;;;;;;;0.00;0.00;;;;;;;;;;1722666;28;20200;-75
2022/03/31 00:56:18;;;;;;;0.00;0.00;;;;;;;;;;1726248;28;20208;-75
2022/03/31 00:57:11;;;;;;;0.00;0.00;;;;;;;;;;1725503;28;20212;-75
2022/03/31 00:58:05;;;;;;;0.10;0.10;;;;;;;;;;1726152;28;20697;-75
2022/03/31 00:58:57;;;;;;;0.00;0.00;;;;;;;;;;1725655;28;20542;-75
2022/03/31 00:59:48;;;;;;;0.00;0.00;;;;;;;;;;1725707;28;20255;-75
2022/03/31 01:00:40;;;;;;;0.00;0.00;;;;;;;;;;1722680;28;20214;-76
2022/03/31 01:01:34;;;;;;;0.00;0.00;;;;;;;;;;1720995;28;20674;-76
2022/03/31 01:02:31;;;;;;;0.00;0.00;;;;;;;;;;1725755;28;20204;-76
2022/03/31 01:03:22;;;;;;;0.00;0.00;;;;;;;;;;1723570;28;20205;-75
2022/03/31 01:04:15;;;;;;;0.10;0.10;;;;;;;;;;1726072;28;20204;-75
2022/03/31 01:05:06;;;;;;;0.00;0.00;;;;;;;;;;1724331;28;20658;-76
2022/03/31 01:05:59;;;;;;;0.10;0.10;;;;;;;;;;1723894;28;20855;-76
2022/03/31 01:06:50;;;;;;;0.10;0.10;;;;;;;;;;1725654;28;20512;-76
2022/03/31 01:07:42;;;;;;;0.00;0.00;;;;;;;;;;1725386;28;20200;-76
2022/03/31 01:08:34;;;;;;;0.00;0.00;;;;;;;;;;1724992;28;20208;-76
2022/03/31 01:09:26;;;;;;;0.05;0.05;;;;;;;;;;1726014;28;20204;-76
2022/03/31 01:10:22;;;;;;;0.00;0.00;;;;;;;;;;1723519;28;20223;-76
2022/03/31 01:11:14;;;;;;;0.00;0.00;;;;;;;;;;1725133;28;20247;-76
2022/03/31 01:12:06;;;;;;;0.00;0.00;;;;;;;;;;1725245;28;20656;-76
2022/03/31 01:12:58;;;;;;;0.00;0.00;;;;;;;;;;1726189;28;20641;-75
2022/03/31 01:13:51;;;;;;;0.00;0.00;;;;;;;;;;1724958;28;20216;-76
2022/03/31 01:14:43;;;;;;;0.00;0.00;;;;;;;;;;1725598;28;20408;-77
2022/03/31 01:15:35;;;;;;;0.10;0.10;;;;;;;;;;1723058;28;20254;-75
2022/03/31 01:16:31;;;;;;;0.00;0.00;;;;;;;;;;1725941;28;20196;-76
2022/03/31 01:17:22;;;;;;;0.00;0.00;;;;;;;;;;1725347;28;20235;-75
2022/03/31 01:18:14;;;;;;;0.10;0.10;;;;;;;;;;1725516;28;20581;-75
2022/03/31 01:19:06;;;;;;;0.00;0.00;;;;;;;;;;1724981;28;20212;-75
2022/03/31 01:19:58;;;;;;;0.00;0.00;;;;;;;;;;1724851;28;20209;-75
2022/03/31 01:20:49;;;;;;;0.00;0.00;;;;;;;;;;1719534;28;20244;-75
2022/03/31 01:21:42;;;;;;;0.00;0.00;;;;;;;;;;1725168;28;20220;-76
2022/03/31 01:22:34;;;;;;;0.00;0.00;;;;;;;;;;1726089;28;20285;-75
2022/03/31 01:23:28;;;;;;;0.00;0.00;;;;;;;;;;1725582;28;20291;-75
2022/03/31 01:24:19;;;;;;;0.10;0.10;;;;;;;;;;1726003;28;20219;-75
2022/03/31 01:25:11;;;;;;;0.00;0.00;;;;;;;;;;1724434;28;20204;-74
2022/03/31 01:26:06;;;;;;;0.05;0.05;;;;;;;;;;1724619;28;20582;-74
2022/03/31 01:26:58;;;;;;;0.00;0.00;;;;;;;;;;1724875;28;20204;-74
2022/03/31 01:27:49;;;;;;;0.03;0.03;;;;;;;;;;1725731;28;20497;-75
2022/03/31 01:28:42;;;;;;;0.00;0.00;;;;;;;;;;1725577;28;20208;-75
2022/03/31 01:29:33;;;;;;;0.22;0.22;;;;;;;;;;1725984;28;20215;-74
2022/03/31 01:30:25;;;;;;;0.05;0.05;;;;;;;;;;1722626;28;20428;-76
2022/03/31 01:31:16;;;;;;;0.00;0.00;;;;;;;;;;1729806;28;20211;-76
2022/03/31 01:32:10;;;;;;;0.10;0.10;;;;;;;;;;1724267;28;20274;-75
2022/03/31 01:33:01;;;;;;;0.10;0.10;;;;;;;;;;1720720;28;20247;-76
2022/03/31 01:33:53;;;;;;;0.00;0.00;;;;;;;;;;1721821;28;20607;-75
2022/03/31 01:34:45;;;;;;;0.00;0.00;;;;;;;;;;1726060;28;20582;-76
2022/03/31 01:35:38;;;;;;;0.00;0.00;;;;;;;;;;1723016;28;20734;-75
2022/03/31 01:36:29;;;;;;;0.10;0.10;;;;;;;;;;1725453;28;20204;-75
2022/03/31 01:37:21;;;;;;;0.00;0.00;;;;;;;;;;1725866;28;20531;-75
2022/03/31 01:38:13;;;;;;;0.05;0.05;;;;;;;;;;1725242;28;20218;-75
2022/03/31 01:39:06;;;;;;;0.00;0.00;;;;;;;;;;1725175;28;20693;-74
2022/03/31 01:39:59;;;;;;;0.10;0.10;;;;;;;;;;1724010;28;20570;-75
2022/03/31 01:40:51;;;;;;;0.03;0.03;;;;;;;;;;1720558;28;20246;-76
2022/03/31 01:41:43;;;;;;;0.00;0.00;;;;;;;;;;1725002;28;20204;-75
2022/03/31 01:42:35;;;;;;;0.00;0.00;;;;;;;;;;1725869;28;20197;-76
2022/03/31 01:43:26;;;;;;;0.00;0.00;;;;;;;;;;1725306;28;20347;-75
2022/03/31 01:44:19;;;;;;;0.00;0.00;;;;;;;;;;1725688;28;20613;-76
2022/03/31 01:45:11;;;;;;;0.05;0.05;;;;;;;;;;1724221;28;20610;-76
2022/03/31 01:46:03;;;;;;;0.00;0.00;;;;;;;;;;1722917;28;20263;-74
2022/03/31 01:46:54;;;;;;;0.00;0.00;;;;;;;;;;1724727;28;20579;-75
2022/03/31 01:47:47;;;;;;;0.10;0.10;;;;;;;;;;1725734;28;20574;-75
2022/03/31 01:48:39;;;;;;;0.10;0.10;;;;;;;;;;1725206;28;20669;-74
2022/03/31 01:49:31;;;;;;;0.08;0.08;;;;;;;;;;1725978;28;20211;-75
2022/03/31 01:50:22;;;;;;;0.00;0.00;;;;;;;;;;1723263;28;20204;-76
2022/03/31 01:51:14;;;;;;;0.00;0.00;;;;;;;;;;1725529;28;20856;-75
2022/03/31 01:52:06;;;;;;;0.00;0.00;;;;;;;;;;1723582;28;20220;-75
2022/03/31 01:52:58;;;;;;;0.10;0.10;;;;;;;;;;1725252;28;20238;-76
2022/03/31 01:53:50;;;;;;;0.00;0.00;;;;;;;;;;1725252;28;20211;-76
2022/03/31 01:54:43;;;;;;;0.00;0.00;;;;;;;;;;1725698;28;20232;-76
2022/03/31 01:55:34;;;;;;;0.00;0.00;;;;;;;;;;1722799;28;20602;-74
2022/03/31 01:56:28;;;;;;;0.10;0.10;;;;;;;;;;1725921;28;20204;-74
2022/03/31 01:57:19;;;;;;;0.00;0.00;;;;;;;;;;1725292;28;20208;-74
2022/03/31 01:58:11;;;;;;;0.00;0.00;;;;;;;;;;1724695;28;20208;-74
2022/03/31 01:59:02;;;;;;;0.05;0.05;;;;;;;;;;1724575;28;20255;-74
2022/03/31 01:59:55;;;;;;;0.00;0.00;;;;;;;;;;1725014;28;20218;-74
2022/03/31 02:00:46;;;;;;;0.00;0.00;;;;;;;;;;1723023;28;20240;-75
2022/03/31 02:01:38;;;;;;;0.10;0.10;;;;;;;;;;1720969;28;20228;-74
2022/03/31 02:02:30;;;;;;;0.10;0.10;;;;;;;;;;1722285;28;20498;-74
2022/03/31 02:03:23;;;;;;;0.10;0.10;;;;;;;;;;1724185;28;20239;-74
2022/03/31 02:04:15;;;;;;;0.10;0.10;;;;;;;;;;1723416;28;20216;-74
2022/03/31 02:05:10;;;;;;;0.10;0.10;;;;;;;;;;1719524;28;20214;-75
2022/03/31 02:06:01;;;;;;;0.00;0.00;;;;;;;;;;1723837;28;20500;-76
2022/03/31 02:06:54;;;;;;;0.13;0.13;;;;;;;;;;1724407;28;20275;-76
2022/03/31 02:07:45;;;;;;;0.08;0.08;;;;;;;;;;1725583;28;20255;-75
2022/03/31 02:08:37;;;;;;;0.00;0.00;;;;;;;;;;1724161;28;20211;-76
2022/03/31 02:09:28;;;;;;;0.08;0.08;;;;;;;;;;1725691;28;20234;-75
2022/03/31 02:10:26;;;;;;;0.00;0.00;;;;;;;;;;1722561;28;20655;-75
2022/03/31 02:11:17;;;;;;;0.17;0.17;;;;;;;;;;1724295;28;20244;-75
2022/03/31 02:12:10;;;;;;;0.45;0.45;;;;;;;;;;1723662;28;20266;-75
2022/03/31 02:13:02;;;;;;;0.00;0.00;;;;;;;;;;1725938;28;20208;-75
2022/03/31 02:13:54;;;;;;;0.03;0.03;;;;;;;;;;1723865;28;20295;-75
2022/03/31 02:14:45;;;;;;;0.00;0.00;;;;;;;;;;1725811;28;20212;-75
2022/03/31 02:15:37;;;;;;;0.00;0.00;;;;;;;;;;1722871;28;20238;-76
2022/03/31 02:16:28;;;;;;;0.10;0.10;;;;;;;;;;1725429;28;20219;-75
2022/03/31 02:17:20;;;;;;;0.10;0.10;;;;;;;;;;1723837;28;20523;-75
2022/03/31 02:18:12;;;;;;;0.00;0.00;;;;;;;;;;1724585;28;20247;-75
2022/03/31 02:19:04;;;;;;;0.00;0.00;;;;;;;;;;1724483;28;20208;-75
2022/03/31 02:19:55;;;;;;;0.00;0.00;;;;;;;;;;1724252;28;20208;-75
2022/03/31 02:20:48;;;;;;;0.00;0.00;;;;;;;;;;1722868;28;20263;-74
2022/03/31 02:21:39;;;;;;;0.10;0.10;;;;;;;;;;1723897;28;20398;-74
2022/03/31 02:22:31;;;;;;;0.00;0.00;;;;;;;;;;1725651;28;20278;-74
2022/03/31 02:23:22;;;;;;;0.00;0.00;;;;;;;;;;1724043;28;20204;-74
2022/03/31 02:24:15;;;;;;;0.10;0.10;;;;;;;;;;1724598;28;20247;-74
2022/03/31 02:25:08;;;;;;;0.00;0.00;;;;;;;;;;1724102;28;20859;-75
2022/03/31 02:26:02;;;;;;;0.10;0.10;;;;;;;;;;1723459;28;20673;-75
2022/03/31 02:26:54;;;;;;;0.10;0.10;;;;;;;;;;1724520;28;20662;-75
2022/03/31 02:27:46;;;;;;;0.00;0.00;;;;;;;;;;1725803;28;20239;-76
2022/03/31 02:28:39;;;;;;;0.00;0.00;;;;;;;;;;1724055;28;20606;-76
2022/03/31 02:29:32;;;;;;;0.00;0.00;;;;;;;;;;1725862;28;20200;-75
2022/03/31 02:30:24;;;;;;;0.10;0.10;;;;;;;;;;1721306;28;20211;-74
2022/03/31 02:31:16;;;;;;;0.05;0.05;;;;;;;;;;1730220;28;20302;-75
2022/03/31 02:32:07;;;;;;;0.10;0.10;;;;;;;;;;1724212;28;20212;-74
2022/03/31 02:33:00;;;;;;;0.10;0.10;;;;;;;;;;1721011;28;20263;-74
2022/03/31 02:33:51;;;;;;;0.20;0.20;;;;;;;;;;1723473;28;20211;-74
2022/03/31 02:34:43;;;;;;;0.00;0.00;;;;;;;;;;1725555;28;20582;-74
2022/03/31 02:35:35;;;;;;;0.00;0.00;;;;;;;;;;1721993;28;20750;-74
2022/03/31 02:36:27;;;;;;;0.00;0.00;;;;;;;;;;1724629;28;20579;-75
2022/03/31 02:37:18;;;;;;;0.00;0.00;;;;;;;;;;1723916;28;20204;-74
2022/03/31 02:38:10;;;;;;;0.10;0.10;;;;;;;;;;1725289;28;20278;-75
2022/03/31 02:39:01;;;;;;;0.00;0.00;;;;;;;;;;1724423;28;20208;-74
2022/03/31 02:39:54;;;;;;;0.00;0.00;;;;;;;;;;1724793;28;20204;-74
2022/03/31 02:40:45;;;;;;;0.10;0.10;;;;;;;;;;1722687;28;20305;-74
2022/03/31 02:41:38;;;;;;;0.00;0.00;;;;;;;;;;1724629;28;20196;-74
2022/03/31 02:42:30;;;;;;;0.10;0.10;;;;;;;;;;1721702;28;20664;-74
2022/03/31 02:43:24;;;;;;;0.00;0.00;;;;;;;;;;1723565;28;20655;-74
2022/03/31 02:44:16;;;;;;;0.00;0.00;;;;;;;;;;1725599;28;20539;-74
2022/03/31 02:45:09;;;;;;;0.00;0.00;;;;;;;;;;1724145;28;20236;-74
2022/03/31 02:46:00;;;;;;;0.00;0.00;;;;;;;;;;1723399;28;20319;-75
2022/03/31 02:46:52;;;;;;;0.10;0.10;;;;;;;;;;1724239;28;20200;-75
2022/03/31 02:47:44;;;;;;;0.00;0.00;;;;;;;;;;1725568;28;20208;-75
2022/03/31 02:48:37;;;;;;;0.00;0.00;;;;;;;;;;1724169;28;20295;-75
2022/03/31 02:49:28;;;;;;;0.10;0.10;;;;;;;;;;1724377;28;20208;-75
2022/03/31 02:50:21;;;;;;;0.00;0.00;;;;;;;;;;1721955;28;20228;-76
2022/03/31 02:51:12;;;;;;;0.00;0.00;;;;;;;;;;1724614;28;20224;-74
2022/03/31 02:52:05;;;;;;;0.00;0.00;;;;;;;;;;1723562;28;20273;-75
2022/03/31 02:55:25;;;;;;;0.20;0.20;;;;;;;;;;1722801;28;20251;-74
2022/03/31 02:56:17;;;;;;;0.10;0.10;;;;;;;;;;1724411;28;20673;-76
2022/03/31 02:57:09;;;;;;;0.00;0.00;;;;;;;;;;1724201;28;20208;-75
2022/03/31 02:58:03;;;;;;;0.00;0.00;;;;;;;;;;1725314;28;20212;-76
2022/03/31 02:58:54;;;;;;;0.00;0.00;;;;;;;;;;1724090;28;20670;-76
2022/03/31 02:59:46;;;;;;;0.00;0.00;;;;;;;;;;1725408;28;20270;-75
2022/03/31 03:00:39;;;;;;;0.00;0.00;;;;;;;;;;1721894;28;20255;-75
2022/03/31 03:01:30;;;;;;;0.00;0.00;;;;;;;;;;1721041;28;20205;-75
2022/03/31 03:02:22;;;;;;;0.05;0.05;;;;;;;;;;1724260;28;20231;-75
2022/03/31 03:03:13;;;;;;;0.00;0.00;;;;;;;;;;1724666;28;20236;-75
2022/03/31 03:04:08;;;;;;;0.10;0.10;;;;;;;;;;1724953;28;20216;-75
2022/03/31 03:04:59;;;;;;;0.10;0.10;;;;;;;;;;1721638;28;20305;-75
2022/03/31 03:05:52;;;;;;;0.00;0.00;;;;;;;;;;1730370;28;20546;-76
2022/03/31 03:06:43;;;;;;;0.00;0.00;;;;;;;;;;1731287;28;20208;-75
2022/03/31 03:07:35;;;;;;;0.00;0.00;;;;;;;;;;1732625;28;20226;-76
2022/03/31 03:08:27;;;;;;;0.00;0.00;;;;;;;;;;1731331;28;20204;-76
2022/03/31 03:09:19;;;;;;;0.00;0.00;;;;;;;;;;1733802;28;20318;-75
2022/03/31 03:10:13;;;;;;;0.00;0.00;;;;;;;;;;1730815;28;20366;-76
2022/03/31 03:11:05;;;;;;;0.00;0.00;;;;;;;;;;1732829;28;20265;-75
2022/03/31 03:11:56;;;;;;;0.05;0.05;;;;;;;;;;1731756;28;20203;-75
2022/03/31 03:12:50;;;;;;;0.05;0.05;;;;;;;;;;1734206;28;20203;-75
2022/03/31 03:13:42;;;;;;;0.00;0.00;;;;;;;;;;1732285;28;20286;-75
2022/03/31 03:14:34;;;;;;;0.03;0.03;;;;;;;;;;1733025;28;20199;-75
2022/03/31 03:15:26;;;;;;;0.10;0.10;;;;;;;;;;1728331;28;20206;-76
2022/03/31 03:16:18;;;;;;;0.00;0.00;;;;;;;;;;1734086;28;20317;-76
2022/03/31 03:17:10;;;;;;;0.00;0.00;;;;;;;;;;1732266;28;20215;-76
2022/03/31 03:18:03;;;;;;;0.10;0.10;;;;;;;;;;1733994;28;20203;-76
2022/03/31 03:18:54;;;;;;;0.00;0.00;;;;;;;;;;1731524;28;20230;-75
2022/03/31 03:19:46;;;;;;;0.00;0.00;;;;;;;;;;1733550;28;20206;-76
2022/03/31 03:20:38;;;;;;;0.10;0.10;;;;;;;;;;1730399;28;20321;-75
2022/03/31 03:21:30;;;;;;;0.00;0.00;;;;;;;;;;1732595;28;20339;-75
2022/03/31 03:22:21;;;;;;;0.00;0.00;;;;;;;;;;1733252;28;20260;-75
2022/03/31 03:23:13;;;;;;;0.00;0.00;;;;;;;;;;1732959;28;20713;-76
2022/03/31 03:24:05;;;;;;;0.00;0.00;;;;;;;;;;1733197;28;20207;-75
2022/03/31 03:24:57;;;;;;;0.00;0.00;;;;;;;;;;1732034;28;20538;-75
2022/03/31 03:25:48;;;;;;;0.00;0.00;;;;;;;;;;1731342;28;20254;-75
2022/03/31 03:26:40;;;;;;;0.00;0.00;;;;;;;;;;1732574;28;20230;-76
2022/03/31 03:27:32;;;;;;;0.00;0.00;;;;;;;;;;1732800;28;20211;-76
2022/03/31 03:28:26;;;;;;;0.00;0.00;;;;;;;;;;1733020;28;20207;-76
2022/03/31 03:29:17;;;;;;;0.10;0.10;;;;;;;;;;1733719;28;20664;-75
2022/03/31 03:30:10;;;;;;;0.00;0.00;;;;;;;;;;1732917;28;20211;-76
2022/03/31 03:31:01;;;;;;;0.00;0.00;;;;;;;;;;1734231;28;20567;-75
2022/03/31 03:31:53;;;;;;;0.10;0.10;;;;;;;;;;1735790;28;20250;-75
2022/03/31 03:32:45;;;;;;;0.00;0.00;;;;;;;;;;1732635;28;20234;-75
2022/03/31 03:33:38;;;;;;;0.10;0.10;;;;;;;;;;1730267;28;20550;-75
2022/03/31 03:34:29;;;;;;;0.10;0.10;;;;;;;;;;1732234;28;20257;-76
2022/03/31 03:35:24;;;;;;;0.05;0.05;;;;;;;;;;1730991;28;20584;-76
2022/03/31 03:36:17;;;;;;;0.00;0.00;;;;;;;;;;1732944;28;20235;-76
2022/03/31 03:37:08;;;;;;;0.00;0.00;;;;;;;;;;1731215;28;20212;-77
2022/03/31 03:38:00;;;;;;;0.00;0.00;;;;;;;;;;1733777;28;20557;-77
2022/03/31 03:38:52;;;;;;;0.00;0.00;;;;;;;;;;1731271;28;20207;-77
2022/03/31 03:39:45;;;;;;;0.20;0.20;;;;;;;;;;1733273;28;20222;-76
2022/03/31 03:40:36;;;;;;;0.00;0.00;;;;;;;;;;1728262;28;20235;-75
2022/03/31 03:41:29;;;;;;;0.00;0.00;;;;;;;;;;1732908;28;20210;-76
2022/03/31 03:42:20;;;;;;;0.00;0.00;;;;;;;;;;1731864;28;20261;-75
2022/03/31 03:43:12;;;;;;;0.00;0.00;;;;;;;;;;1733192;28;20653;-75
2022/03/31 03:44:05;;;;;;;0.00;0.00;;;;;;;;;;1733612;28;20212;-75
2022/03/31 03:44:57;;;;;;;0.00;0.00;;;;;;;;;;1733156;28;20207;-75
2022/03/31 03:45:49;;;;;;;0.13;0.13;;;;;;;;;;1730738;28;20244;-75
2022/03/31 03:46:41;;;;;;;0.00;0.00;;;;;;;;;;1731703;28;20211;-75
2022/03/31 03:47:32;;;;;;;0.00;0.00;;;;;;;;;;1733181;28;20654;-74
2022/03/31 03:48:25;;;;;;;0.10;0.10;;;;;;;;;;1731526;28;20204;-74
2022/03/31 03:49:17;;;;;;;0.00;0.00;;;;;;;;;;1733397;28;20353;-75
2022/03/31 03:50:10;;;;;;;0.10;0.10;;;;;;;;;;1731619;28;20234;-74
2022/03/31 03:51:01;;;;;;;0.00;0.00;;;;;;;;;;1731489;28;20235;-76
2022/03/31 03:51:53;;;;;;;0.00;0.00;;;;;;;;;;1732296;28;20219;-76
2022/03/31 03:52:45;;;;;;;0.10;0.10;;;;;;;;;;1732492;28;20206;-76
2022/03/31 03:53:37;;;;;;;0.00;0.00;;;;;;;;;;1731955;28;20648;-75
2022/03/31 03:54:28;;;;;;;0.00;0.00;;;;;;;;;;1733482;28;20541;-75
2022/03/31 03:55:24;;;;;;;0.03;0.03;;;;;;;;;;1729505;28;20210;-76
2022/03/31 03:56:16;;;;;;;0.00;0.00;;;;;;;;;;1732416;28;20358;-75
2022/03/31 03:57:08;;;;;;;0.00;0.00;;;;;;;;;;1732199;28;20203;-75
2022/03/31 03:57:59;;;;;;;0.10;0.10;;;;;;;;;;1733145;28;20479;-75
2022/03/31 03:58:52;;;;;;;0.00;0.00;;;;;;;;;;1730457;28;20231;-75
2022/03/31 03:59:44;;;;;;;0.00;0.00;;;;;;;;;;1732415;28;20207;-75
2022/03/31 04:00:37;;;;;;;0.00;0.00;;;;;;;;;;1729107;28;20894;-75
2022/03/31 04:01:28;;;;;;;0.10;0.10;;;;;;;;;;1728985;28;20581;-75
2022/03/31 04:02:20;;;;;;;0.00;0.00;;;;;;;;;;1732103;28;20511;-76
2022/03/31 04:03:12;;;;;;;0.00;0.00;;;;;;;;;;1732893;28;20208;-75
2022/03/31 04:04:04;;;;;;;0.00;0.00;;;;;;;;;;1732866;28;20649;-76
2022/03/31 04:04:55;;;;;;;0.00;0.00;;;;;;;;;;1732289;28;20215;-76
2022/03/31 04:05:47;;;;;;;0.00;0.00;;;;;;;;;;1722066;28;20848;-76
2022/03/31 04:06:39;;;;;;;0.10;0.10;;;;;;;;;;1725103;28;20208;-76
2022/03/31 04:07:31;;;;;;;0.00;0.00;;;;;;;;;;1726409;28;20307;-76
2022/03/31 04:08:23;;;;;;;0.10;0.10;;;;;;;;;;1723873;28;20261;-76
2022/03/31 04:09:15;;;;;;;0.00;0.00;;;;;;;;;;1726348;28;20209;-76
2022/03/31 04:10:09;;;;;;;0.08;0.08;;;;;;;;;;1723502;28;20589;-76
2022/03/31 04:11:01;;;;;;;0.00;0.00;;;;;;;;;;1724258;28;20327;-76
2022/03/31 04:11:52;;;;;;;0.00;0.00;;;;;;;;;;1724657;28;20653;-76
2022/03/31 04:12:45;;;;;;;0.00;0.00;;;;;;;;;;1726110;28;20192;-75
2022/03/31 04:13:36;;;;;;;0.00;0.00;;;;;;;;;;1724212;28;20304;-75
2022/03/31 04:14:28;;;;;;;0.20;0.20;;;;;;;;;;1726044;28;20204;-76
2022/03/31 04:15:23;;;;;;;0.20;0.20;;;;;;;;;;1722985;28;20204;-77
2022/03/31 04:16:16;;;;;;;0.10;0.10;;;;;;;;;;1725878;28;20250;-76
2022/03/31 04:17:08;;;;;;;0.00;0.00;;;;;;;;;;1724567;28;20535;-76
2022/03/31 04:18:00;;;;;;;0.00;0.00;;;;;;;;;;1726168;28;20295;-76
2022/03/31 04:18:51;;;;;;;0.10;0.10;;;;;;;;;;1723388;28;20208;-76
2022/03/31 04:19:43;;;;;;;0.00;0.00;;;;;;;;;;1726080;28;20287;-77
2022/03/31 04:20:35;;;;;;;0.10;0.10;;;;;;;;;;1722439;28;20641;-77
2022/03/31 04:21:27;;;;;;;0.13;0.13;;;;;;;;;;1726586;28;20204;-77
2022/03/31 04:22:18;;;;;;;0.00;0.00;;;;;;;;;;1724896;28;20204;-77
2022/03/31 04:23:11;;;;;;;0.10;0.10;;;;;;;;;;1725525;28;20204;-76
2022/03/31 04:24:02;;;;;;;0.15;0.15;;;;;;;;;;1725226;28;20281;-76
2022/03/31 04:24:54;;;;;;;0.00;0.00;;;;;;;;;;1724376;28;20208;-76
2022/03/31 04:25:45;;;;;;;0.10;0.10;;;;;;;;;;1724077;28;20585;-76
2022/03/31 04:26:38;;;;;;;0.00;0.00;;;;;;;;;;1724846;28;20205;-75
2022/03/31 04:27:29;;;;;;;0.00;0.00;;;;;;;;;;1722789;28;20247;-76
2022/03/31 04:28:22;;;;;;;0.00;0.00;;;;;;;;;;1724991;28;20330;-76
2022/03/31 04:29:13;;;;;;;0.10;0.10;;;;;;;;;;1726236;28;20208;-76
2022/03/31 04:30:06;;;;;;;0.00;0.00;;;;;;;;;;1725386;28;20274;-76
2022/03/31 04:30:59;;;;;;;0.00;0.00;;;;;;;;;;1722868;28;20341;-75
2022/03/31 04:31:51;;;;;;;0.00;0.00;;;;;;;;;;1724798;28;20643;-75
2022/03/31 04:32:42;;;;;;;0.00;0.00;;;;;;;;;;1725541;28;20205;-75
2022/03/31 04:33:34;;;;;;;0.00;0.00;;;;;;;;;;1724483;28;20206;-75
2022/03/31 04:34:26;;;;;;;0.00;0.00;;;;;;;;;;1725010;28;20634;-75
2022/03/31 04:35:20;;;;;;;0.00;0.00;;;;;;;;;;1722948;28;20201;-75
2022/03/31 04:36:11;;;;;;;0.00;0.00;;;;;;;;;;1725362;28;20232;-75
2022/03/31 04:37:04;;;;;;;0.00;0.00;;;;;;;;;;1724326;28;20208;-75
2022/03/31 04:37:55;;;;;;;0.10;0.10;;;;;;;;;;1725720;28;20220;-75
2022/03/31 04:38:47;;;;;;;0.00;0.00;;;;;;;;;;1725109;28;20720;-75
2022/03/31 04:39:38;;;;;;;0.00;0.00;;;;;;;;;;1726119;28;20223;-75
2022/03/31 04:40:32;;;;;;;0.03;0.03;;;;;;;;;;1722944;28;20234;-75
2022/03/31 04:41:26;;;;;;;0.00;0.00;;;;;;;;;;1726098;28;20189;-75
2022/03/31 04:42:18;;;;;;;0.00;0.00;;;;;;;;;;1725129;28;20211;-75
2022/03/31 04:43:09;;;;;;;0.08;0.08;;;;;;;;;;1725190;28;20254;-75
2022/03/31 04:44:01;;;;;;;0.00;0.00;;;;;;;;;;1724991;28;20615;-75
2022/03/31 04:44:53;;;;;;;0.00;0.00;;;;;;;;;;1725358;28;20212;-75
2022/03/31 04:45:45;;;;;;;0.00;0.00;;;;;;;;;;1723825;28;20232;-75
2022/03/31 04:46:37;;;;;;;0.00;0.00;;;;;;;;;;1724370;28;20208;-75
2022/03/31 04:47:30;;;;;;;0.00;0.00;;;;;;;;;;1722346;28;20653;-75
2022/03/31 04:48:21;;;;;;;0.00;0.00;;;;;;;;;;1724022;28;20212;-75
2022/03/31 04:49:13;;;;;;;0.00;0.00;;;;;;;;;;1726303;28;20246;-74
2022/03/31 04:50:05;;;;;;;0.00;0.00;;;;;;;;;;1722964;28;20246;-74
2022/03/31 04:50:57;;;;;;;0.00;0.00;;;;;;;;;;1724089;28;20248;-75
2022/03/31 04:51:49;;;;;;;0.10;0.10;;;;;;;;;;1724507;28;20200;-75
2022/03/31 04:52:41;;;;;;;0.00;0.00;;;;;;;;;;1726079;28;20252;-75
2022/03/31 04:53:32;;;;;;;0.00;0.00;;;;;;;;;;1725082;28;20855;-75
2022/03/31 04:54:24;;;;;;;0.03;0.03;;;;;;;;;;1726159;28;20211;-75
2022/03/31 04:55:15;;;;;;;0.00;0.00;;;;;;;;;;1724010;28;20204;-78
2022/03/31 04:56:07;;;;;;;0.00;0.00;;;;;;;;;;1725077;28;20246;-75
2022/03/31 04:56:59;;;;;;;0.00;0.00;;;;;;;;;;1724591;28;20227;-75
2022/03/31 04:57:51;;;;;;;0.20;0.20;;;;;;;;;;1726022;28;20303;-75
2022/03/31 04:58:42;;;;;;;0.00;0.00;;;;;;;;;;1723719;28;20211;-75
2022/03/31 04:59:34;;;;;;;0.00;0.00;;;;;;;;;;1726336;28;20295;-75
2022/03/31 05:00:25;;;;;;;0.00;0.00;;;;;;;;;;1721694;28;20657;-73
2022/03/31 05:01:18;;;;;;;0.00;0.00;;;;;;;;;;1723589;28;20275;-73
2022/03/31 05:02:11;;;;;;;0.00;0.00;;;;;;;;;;1722197;28;20232;-74
2022/03/31 05:03:04;;;;;;;0.03;0.03;;;;;;;;;;1725393;28;20207;-74
2022/03/31 05:03:55;;;;;;;0.05;0.05;;;;;;;;;;1723648;28;20204;-74
2022/03/31 05:04:47;;;;;;;0.10;0.10;;;;;;;;;;1725823;28;20213;-73
2022/03/31 05:05:38;;;;;;;0.00;0.00;;;;;;;;;;1721963;28;20239;-75
2022/03/31 05:06:30;;;;;;;0.00;0.00;;;;;;;;;;1719794;28;20205;-74
2022/03/31 05:07:22;;;;;;;0.00;0.00;;;;;;;;;;1725232;28;20530;-74
2022/03/31 05:08:14;;;;;;;0.10;0.10;;;;;;;;;;1725760;28;20567;-74
2022/03/31 05:09:05;;;;;;;0.00;0.00;;;;;;;;;;1724881;28;20247;-74
2022/03/31 05:09:57;;;;;;;0.10;0.10;;;;;;;;;;1724674;28;20236;-74
2022/03/31 05:10:49;;;;;;;0.00;0.00;;;;;;;;;;1723660;28;20251;-74
2022/03/31 05:11:41;;;;;;;0.00;0.00;;;;;;;;;;1724296;28;20204;-74
2022/03/31 05:12:32;;;;;;;0.00;0.00;;;;;;;;;;1725858;28;20696;-74
2022/03/31 05:13:24;;;;;;;0.00;0.00;;;;;;;;;;1725141;28;20223;-74
2022/03/31 05:14:15;;;;;;;0.00;0.00;;;;;;;;;;1725541;28;20204;-74
2022/03/31 05:15:08;;;;;;;0.10;0.10;;;;;;;;;;1722646;28;20529;-74